TimeCDT,TemperatureF,Dew PointF,Humidity,Sea Level PressureIn,VisibilityMPH,Wind Direction,Wind SpeedMPH,Gust SpeedMPH,PrecipitationIn,Events,Conditions,WindDirDegrees,DateUTC
12:53 AM,46.0,45.0,96,30.23,10.0,Calm,Calm,-,N/A,,Unknown,0,2011-10-04 05:53:00
1:53 AM,43.0,42.1,97,30.24,8.0,Calm,Calm,-,N/A,,Clear,0,2011-10-04 06:53:00
2:53 AM,44.1,43.0,96,30.23,10.0,Calm,Calm,-,N/A,,Clear,0,2011-10-04 07:53:00
3:53 AM,42.1,41.0,96,30.24,10.0,Calm,Calm,-,N/A,,Clear,0,2011-10-04 08:53:00
4:12 AM,42.8,41.0,93,30.22,1.5,Calm,Calm,-,N/A,,Clear,0,2011-10-04 09:12:00
4:21 AM,42.8,41.0,93,30.22,0.5,Calm,Calm,-,N/A,Fog,Fog,0,2011-10-04 09:21:00
4:53 AM,43.0,42.1,97,30.25,0.5,Calm,Calm,-,N/A,Fog,Fog,0,2011-10-04 09:53:00
5:20 AM,41.0,39.2,93,30.23,2.0,Calm,Calm,-,N/A,,Clear,0,2011-10-04 10:20:00
5:34 AM,39.2,39.2,100,30.24,0.8,Calm,Calm,-,N/A,,Clear,0,2011-10-04 10:34:00
6:03 AM,39.2,39.2,100,30.24,3.0,Calm,Calm,-,N/A,,Clear,0,2011-10-04 11:03:00
6:40 AM,39.2,39.2,100,30.25,0.8,Calm,Calm,-,N/A,,Clear,0,2011-10-04 11:40:00
6:51 AM,39.2,39.2,100,30.26,0.2,Calm,Calm,-,N/A,Fog,Fog,0,2011-10-04 11:51:00
6:53 AM,39.9,39.0,97,30.28,0.2,Calm,Calm,-,N/A,Fog,Fog,0,2011-10-04 11:53:00
7:20 AM,39.2,39.2,100,30.26,0.2,Calm,Calm,-,N/A,Fog,Fog,0,2011-10-04 12:20:00
7:53 AM,48.0,46.0,93,30.30,3.0,Calm,Calm,-,N/A,,Clear,0,2011-10-04 12:53:00
8:53 AM,60.1,53.1,78,30.31,10.0,Calm,Calm,-,N/A,,Clear,0,2011-10-04 13:53:00
9:53 AM,69.1,48.9,49,30.32,10.0,Calm,Calm,-,N/A,,Clear,0,2011-10-04 14:53:00
10:53 AM,73.0,45.0,37,30.31,10.0,Calm,Calm,-,N/A,,Clear,0,2011-10-04 15:53:00
11:53 AM,75.9,46.0,35,30.30,10.0,Variable,4.6,-,N/A,,Clear,0,2011-10-04 16:53:00
1:53 PM,79.0,44.1,29,30.24,10.0,ENE,6.9,-,N/A,,Clear,60,2011-10-04 18:53:00
2:53 PM,80.1,44.1,28,30.22,10.0,NE,4.6,-,N/A,,Clear,40,2011-10-04 19:53:00
3:53 PM,80.1,44.1,28,30.20,10.0,East,4.6,-,N/A,,Clear,90,2011-10-04 20:53:00
5:53 PM,79.0,46.0,31,30.19,10.0,NNE,4.6,-,N/A,,Clear,20,2011-10-04 22:53:00
8:53 PM,60.1,55.0,83,30.20,10.0,Calm,Calm,-,N/A,,Clear,0,2011-10-05 01:53:00
9:53 PM,52.0,50.0,93,30.21,10.0,Calm,Calm,-,N/A,,Clear,0,2011-10-05 02:53:00
10:53 PM,50.0,48.0,93,30.21,10.0,Calm,Calm,-,N/A,,Clear,0,2011-10-05 03:53:00
11:53 PM,48.9,46.9,93,30.21,10.0,Calm,Calm,-,N/A,,Clear,0,2011-10-05 04:53:00